KLM121 EFRO-EFHK
Flight info
| Callsign | KLM121 |
|---|---|
| Flight time | 1h 7m |
| Altitude | 37000 |
| Route | RENVI Y86 EVSET DCT IBOSU Y86 LUSEP |
| Aircraft | B738/M-SDE2E3FGHIRWXY/LB1 |
Departure
| Time | 2026-05-07 19:42 |
|---|---|
| Airport | Rovaniemi Airport (EFRO) |
Arrival
| Time | 2026-05-07 20:49 |
|---|---|
| Airport | Helsinki Vantaa Airport (EFHK) |
| Time | Latitude | Longitude | Altitude | Speed | Heading |
|---|---|---|---|---|---|
| 2026-05-07 18:49 | 66.55833 | 25.82597 | 648 ft | 0 kts | 142° |
| 2026-05-07 19:32 | 66.55840 | 25.82585 | 620 ft | 4 kts | 142° |
| 2026-05-07 19:32 | 66.55861 | 25.82542 | 650 ft | 4 kts | 137° |
| 2026-05-07 19:32 | 66.55879 | 25.82498 | 649 ft | 2 kts | 136° |
| 2026-05-07 19:33 | 66.55883 | 25.82489 | 648 ft | 0 kts | 136° |
| 2026-05-07 19:38 | 66.55872 | 25.82487 | 651 ft | 3 kts | 200° |
| 2026-05-07 19:38 | 66.55857 | 25.82438 | 648 ft | 5 kts | 240° |
| 2026-05-07 19:38 | 66.55827 | 25.82330 | 649 ft | 10 kts | 223° |
| 2026-05-07 19:38 | 66.55764 | 25.82209 | 650 ft | 13 kts | 218° |
| 2026-05-07 19:39 | 66.55687 | 25.82058 | 650 ft | 15 kts | 218° |
| 2026-05-07 19:39 | 66.55603 | 25.81899 | 651 ft | 15 kts | 217° |
| 2026-05-07 19:39 | 66.55522 | 25.81747 | 653 ft | 14 kts | 216° |
| 2026-05-07 19:39 | 66.55445 | 25.81602 | 653 ft | 14 kts | 217° |
| 2026-05-07 19:40 | 66.55371 | 25.81460 | 653 ft | 13 kts | 221° |
| 2026-05-07 19:40 | 66.55342 | 25.81259 | 654 ft | 13 kts | 282° |
| 2026-05-07 19:40 | 66.55400 | 25.81106 | 658 ft | 12 kts | 328° |
| 2026-05-07 19:40 | 66.55470 | 25.81113 | 656 ft | 10 kts | 33° |
| 2026-05-07 19:41 | 66.55524 | 25.81213 | 655 ft | 10 kts | 37° |
| 2026-05-07 19:41 | 66.55595 | 25.81351 | 655 ft | 22 kts | 37° |
| 2026-05-07 19:41 | 66.55904 | 25.81938 | 651 ft | 89 kts | 37° |
| 2026-05-07 19:41 | 66.56557 | 25.83180 | 639 ft | 144 kts | 37° |
| 2026-05-07 19:42 | 66.57475 | 25.84954 | 725 ft | 183 kts | 37° |
| 2026-05-07 19:42 | 66.58485 | 25.86976 | 1473 ft | 184 kts | 40° |
| 2026-05-07 19:42 | 66.59455 | 25.88990 | 2351 ft | 180 kts | 37° |
| 2026-05-07 19:42 | 66.60485 | 25.91073 | 2733 ft | 201 kts | 37° |
| 2026-05-07 19:43 | 66.61589 | 25.93297 | 3275 ft | 205 kts | 37° |
| 2026-05-07 19:43 | 66.62720 | 25.95566 | 3723 ft | 214 kts | 37° |
| 2026-05-07 19:43 | 66.63755 | 25.98475 | 3881 ft | 237 kts | 69° |
| 2026-05-07 19:43 | 66.63824 | 26.02633 | 4386 ft | 246 kts | 110° |
| 2026-05-07 19:44 | 66.62832 | 26.06054 | 5073 ft | 245 kts | 143° |
| 2026-05-07 19:44 | 66.61471 | 26.08666 | 5740 ft | 248 kts | 142° |
| 2026-05-07 19:44 | 66.60103 | 26.11346 | 6447 ft | 249 kts | 150° |
| 2026-05-07 19:44 | 66.58485 | 26.12833 | 7054 ft | 252 kts | 175° |
| 2026-05-07 19:45 | 66.56713 | 26.12370 | 7383 ft | 265 kts | 202° |
| 2026-05-07 19:45 | 66.55086 | 26.10163 | 8008 ft | 266 kts | 219° |
| 2026-05-07 19:45 | 66.53785 | 26.06799 | 8601 ft | 269 kts | 226° |
| 2026-05-07 19:45 | 66.52264 | 26.04216 | 9548 ft | 262 kts | 206° |
| 2026-05-07 19:46 | 66.50612 | 26.02487 | 10457 ft | 254 kts | 202° |
| 2026-05-07 19:46 | 66.48856 | 26.01301 | 10760 ft | 272 kts | 192° |
| 2026-05-07 19:46 | 66.46919 | 26.00482 | 10943 ft | 293 kts | 190° |
| 2026-05-07 19:46 | 66.44837 | 25.99673 | 11121 ft | 312 kts | 190° |
| 2026-05-07 19:47 | 66.42627 | 25.98795 | 11322 ft | 330 kts | 190° |
| 2026-05-07 19:47 | 66.40328 | 25.97840 | 11798 ft | 338 kts | 191° |
| 2026-05-07 19:47 | 66.38027 | 25.96609 | 12446 ft | 340 kts | 199° |
| 2026-05-07 19:47 | 66.35890 | 25.94110 | 13141 ft | 340 kts | 211° |
| 2026-05-07 19:48 | 66.33848 | 25.91094 | 13837 ft | 343 kts | 212° |
| 2026-05-07 19:48 | 66.31792 | 25.88003 | 14435 ft | 347 kts | 212° |
| 2026-05-07 19:48 | 66.29712 | 25.84902 | 15057 ft | 350 kts | 211° |
| 2026-05-07 19:48 | 66.27606 | 25.81800 | 15690 ft | 354 kts | 211° |
| 2026-05-07 19:49 | 66.25472 | 25.78692 | 16318 ft | 357 kts | 211° |
| 2026-05-07 19:49 | 66.23317 | 25.75577 | 16940 ft | 361 kts | 211° |
| 2026-05-07 19:49 | 66.21133 | 25.72438 | 17557 ft | 364 kts | 211° |
| 2026-05-07 19:49 | 66.18927 | 25.69278 | 18178 ft | 368 kts | 211° |
| 2026-05-07 19:50 | 66.16698 | 25.66091 | 18733 ft | 372 kts | 210° |
| 2026-05-07 19:50 | 66.14452 | 25.62884 | 19291 ft | 374 kts | 210° |
| 2026-05-07 19:50 | 66.12191 | 25.59667 | 19851 ft | 376 kts | 210° |
| 2026-05-07 19:50 | 66.09904 | 25.56463 | 20394 ft | 379 kts | 207° |
| 2026-05-07 19:51 | 66.07442 | 25.54057 | 20912 ft | 383 kts | 195° |
| 2026-05-07 19:51 | 66.04812 | 25.52842 | 21401 ft | 387 kts | 184° |
| 2026-05-07 19:51 | 66.02116 | 25.52586 | 21914 ft | 390 kts | 181° |
| 2026-05-07 19:51 | 65.99392 | 25.52471 | 22414 ft | 393 kts | 181° |
| 2026-05-07 19:52 | 65.96645 | 25.52377 | 22898 ft | 396 kts | 181° |
| 2026-05-07 19:52 | 65.93916 | 25.52273 | 23375 ft | 399 kts | 181° |
| 2026-05-07 19:52 | 65.91128 | 25.52147 | 23815 ft | 402 kts | 181° |
| 2026-05-07 19:52 | 65.88318 | 25.52003 | 24201 ft | 405 kts | 181° |
| 2026-05-07 19:53 | 65.85492 | 25.51846 | 24592 ft | 407 kts | 182° |
| 2026-05-07 19:53 | 65.82650 | 25.51681 | 24968 ft | 410 kts | 182° |
| 2026-05-07 19:53 | 65.79789 | 25.51511 | 25343 ft | 413 kts | 182° |
| 2026-05-07 19:53 | 65.76909 | 25.51340 | 25706 ft | 415 kts | 182° |
| 2026-05-07 19:54 | 65.74016 | 25.51168 | 26060 ft | 418 kts | 182° |
| 2026-05-07 19:54 | 65.71100 | 25.50995 | 26412 ft | 420 kts | 182° |
| 2026-05-07 19:54 | 65.68166 | 25.50821 | 26756 ft | 423 kts | 183° |
| 2026-05-07 19:54 | 65.65213 | 25.50647 | 27095 ft | 425 kts | 183° |
| 2026-05-07 19:55 | 65.62250 | 25.50474 | 27419 ft | 428 kts | 183° |
| 2026-05-07 19:55 | 65.59265 | 25.50299 | 27746 ft | 430 kts | 183° |
| 2026-05-07 19:55 | 65.56266 | 25.50124 | 28064 ft | 433 kts | 183° |
| 2026-05-07 19:55 | 65.53245 | 25.49948 | 28381 ft | 435 kts | 183° |
| 2026-05-07 19:56 | 65.50214 | 25.49772 | 28683 ft | 437 kts | 184° |
| 2026-05-07 19:56 | 65.47167 | 25.49596 | 28984 ft | 439 kts | 184° |
| 2026-05-07 19:56 | 65.44099 | 25.49419 | 29287 ft | 441 kts | 184° |
| 2026-05-07 19:56 | 65.41024 | 25.49242 | 29584 ft | 443 kts | 184° |
| 2026-05-07 19:57 | 65.37930 | 25.49065 | 29852 ft | 446 kts | 184° |
| 2026-05-07 19:57 | 65.34824 | 25.48886 | 30123 ft | 448 kts | 184° |
| 2026-05-07 19:57 | 65.31701 | 25.48707 | 30352 ft | 450 kts | 184° |
| 2026-05-07 19:57 | 65.28564 | 25.48527 | 30551 ft | 452 kts | 184° |
| 2026-05-07 19:58 | 65.25462 | 25.48341 | 30792 ft | 453 kts | 185° |
| 2026-05-07 19:58 | 65.22311 | 25.48149 | 31077 ft | 452 kts | 185° |
| 2026-05-07 19:58 | 65.19168 | 25.47957 | 31388 ft | 452 kts | 185° |
| 2026-05-07 19:58 | 65.16027 | 25.47767 | 31670 ft | 452 kts | 185° |
| 2026-05-07 19:59 | 65.12881 | 25.47577 | 31929 ft | 452 kts | 185° |
| 2026-05-07 19:59 | 65.09735 | 25.47392 | 32200 ft | 452 kts | 184° |
| 2026-05-07 19:59 | 65.07611 | 25.47275 | 32390 ft | 452 kts | 185° |
| 2026-05-07 19:59 | 65.03449 | 25.47052 | 32771 ft | 451 kts | 185° |
| 2026-05-07 20:00 | 65.01329 | 25.46939 | 32949 ft | 451 kts | 185° |
| 2026-05-07 20:00 | 64.98236 | 25.46769 | 33194 ft | 451 kts | 185° |
| 2026-05-07 20:00 | 64.95091 | 25.46592 | 33431 ft | 452 kts | 185° |
| 2026-05-07 20:00 | 64.91953 | 25.46412 | 33697 ft | 451 kts | 185° |
| 2026-05-07 20:01 | 64.88817 | 25.46231 | 33971 ft | 451 kts | 185° |
| 2026-05-07 20:01 | 64.85678 | 25.46049 | 34178 ft | 452 kts | 185° |
| 2026-05-07 20:01 | 64.82537 | 25.45868 | 34373 ft | 452 kts | 185° |
| 2026-05-07 20:01 | 64.79396 | 25.45688 | 34594 ft | 451 kts | 185° |
| 2026-05-07 20:02 | 64.76262 | 25.45510 | 34802 ft | 451 kts | 185° |
| 2026-05-07 20:02 | 64.73130 | 25.45332 | 34974 ft | 451 kts | 185° |
| 2026-05-07 20:02 | 64.69991 | 25.45154 | 35148 ft | 451 kts | 185° |
| 2026-05-07 20:02 | 64.66861 | 25.44978 | 35342 ft | 450 kts | 185° |
| 2026-05-07 20:03 | 64.63727 | 25.44801 | 35537 ft | 450 kts | 185° |
| 2026-05-07 20:03 | 64.60594 | 25.44625 | 35720 ft | 450 kts | 185° |
| 2026-05-07 20:03 | 64.57460 | 25.44449 | 35900 ft | 450 kts | 185° |
| 2026-05-07 20:03 | 64.54352 | 25.44275 | 36083 ft | 450 kts | 185° |
| 2026-05-07 20:04 | 64.51223 | 25.44100 | 36255 ft | 450 kts | 185° |
| 2026-05-07 20:04 | 64.48094 | 25.43926 | 36425 ft | 449 kts | 185° |
| 2026-05-07 20:04 | 64.44969 | 25.43752 | 36588 ft | 449 kts | 185° |
| 2026-05-07 20:04 | 64.41843 | 25.43579 | 36757 ft | 449 kts | 185° |
| 2026-05-07 20:05 | 64.38720 | 25.43406 | 36919 ft | 449 kts | 185° |
| 2026-05-07 20:05 | 64.35599 | 25.43234 | 37048 ft | 449 kts | 186° |
| 2026-05-07 20:05 | 64.29336 | 25.42888 | 37088 ft | 451 kts | 186° |
| 2026-05-07 20:06 | 64.23086 | 25.42547 | 37100 ft | 448 kts | 186° |
| 2026-05-07 20:06 | 64.16887 | 25.42212 | 37110 ft | 445 kts | 186° |
| 2026-05-07 20:07 | 64.10715 | 25.41877 | 37121 ft | 442 kts | 186° |
| 2026-05-07 20:07 | 64.04612 | 25.41547 | 37115 ft | 441 kts | 186° |
| 2026-05-07 20:08 | 63.98486 | 25.41216 | 37115 ft | 440 kts | 186° |
| 2026-05-07 20:08 | 63.92354 | 25.40886 | 37117 ft | 441 kts | 186° |
| 2026-05-07 20:09 | 63.86196 | 25.40555 | 37127 ft | 443 kts | 186° |
| 2026-05-07 20:10 | 63.76922 | 25.40062 | 37124 ft | 446 kts | 186° |
| 2026-05-07 20:10 | 63.70698 | 25.39733 | 37127 ft | 448 kts | 186° |
| 2026-05-07 20:11 | 63.64448 | 25.39405 | 37119 ft | 450 kts | 186° |
| 2026-05-07 20:11 | 63.58178 | 25.39078 | 37119 ft | 451 kts | 186° |
| 2026-05-07 20:12 | 63.51892 | 25.38752 | 37105 ft | 451 kts | 186° |
| 2026-05-07 20:12 | 63.45614 | 25.38428 | 37116 ft | 451 kts | 186° |
| 2026-05-07 20:13 | 63.39350 | 25.38106 | 37121 ft | 450 kts | 186° |
| 2026-05-07 20:13 | 63.33102 | 25.37786 | 37106 ft | 448 kts | 186° |
| 2026-05-07 20:14 | 63.26890 | 25.37469 | 37115 ft | 446 kts | 186° |
| 2026-05-07 20:14 | 63.20698 | 25.37153 | 37125 ft | 444 kts | 186° |
| 2026-05-07 20:15 | 63.14563 | 25.36841 | 37122 ft | 444 kts | 186° |
| 2026-05-07 20:15 | 63.08393 | 25.36529 | 37133 ft | 443 kts | 186° |
| 2026-05-07 20:16 | 63.02233 | 25.36218 | 37131 ft | 443 kts | 186° |
| 2026-05-07 20:16 | 62.96069 | 25.35909 | 37125 ft | 443 kts | 186° |
| 2026-05-07 20:17 | 62.89893 | 25.35600 | 37133 ft | 444 kts | 186° |
| 2026-05-07 20:17 | 62.83697 | 25.35291 | 37133 ft | 446 kts | 186° |
| 2026-05-07 20:18 | 62.77439 | 25.34977 | 36603 ft | 453 kts | 186° |
| 2026-05-07 20:18 | 62.74303 | 25.34826 | 36215 ft | 449 kts | 186° |
| 2026-05-07 20:18 | 62.71198 | 25.34678 | 35795 ft | 445 kts | 187° |
| 2026-05-07 20:18 | 62.68109 | 25.34531 | 35359 ft | 442 kts | 187° |
| 2026-05-07 20:19 | 62.65052 | 25.34385 | 34933 ft | 438 kts | 187° |
| 2026-05-07 20:19 | 62.62011 | 25.34238 | 34532 ft | 435 kts | 188° |
| 2026-05-07 20:19 | 62.58994 | 25.34092 | 34109 ft | 433 kts | 188° |
| 2026-05-07 20:19 | 62.55995 | 25.33945 | 33622 ft | 430 kts | 188° |
| 2026-05-07 20:20 | 62.53016 | 25.33800 | 33187 ft | 426 kts | 188° |
| 2026-05-07 20:20 | 62.50059 | 25.33658 | 32755 ft | 423 kts | 188° |
| 2026-05-07 20:20 | 62.47136 | 25.33518 | 32391 ft | 418 kts | 188° |
| 2026-05-07 20:20 | 62.44236 | 25.33378 | 31949 ft | 416 kts | 188° |
| 2026-05-07 20:21 | 62.41353 | 25.33238 | 31560 ft | 412 kts | 188° |
| 2026-05-07 20:21 | 62.38495 | 25.33100 | 31158 ft | 410 kts | 188° |
| 2026-05-07 20:21 | 62.35655 | 25.32963 | 30764 ft | 407 kts | 188° |
| 2026-05-07 20:21 | 62.32833 | 25.32827 | 30377 ft | 404 kts | 188° |
| 2026-05-07 20:22 | 62.30034 | 25.32693 | 29951 ft | 401 kts | 188° |
| 2026-05-07 20:22 | 62.27252 | 25.32560 | 29491 ft | 398 kts | 188° |
| 2026-05-07 20:22 | 62.24498 | 25.32429 | 29066 ft | 394 kts | 188° |
| 2026-05-07 20:22 | 62.21771 | 25.32301 | 28662 ft | 390 kts | 188° |
| 2026-05-07 20:23 | 62.19072 | 25.32174 | 28267 ft | 386 kts | 188° |
| 2026-05-07 20:23 | 62.16396 | 25.32047 | 27870 ft | 383 kts | 188° |
| 2026-05-07 20:23 | 62.13782 | 25.31923 | 27493 ft | 379 kts | 188° |
| 2026-05-07 20:23 | 62.11157 | 25.31797 | 27095 ft | 376 kts | 188° |
| 2026-05-07 20:24 | 62.08554 | 25.31673 | 26713 ft | 373 kts | 188° |
| 2026-05-07 20:24 | 62.05968 | 25.31551 | 26303 ft | 370 kts | 189° |
| 2026-05-07 20:24 | 62.03411 | 25.31432 | 25955 ft | 366 kts | 189° |
| 2026-05-07 20:24 | 62.00877 | 25.31314 | 25601 ft | 361 kts | 189° |
| 2026-05-07 20:25 | 61.98375 | 25.31198 | 25240 ft | 359 kts | 189° |
| 2026-05-07 20:25 | 61.95889 | 25.31080 | 24879 ft | 356 kts | 189° |
| 2026-05-07 20:25 | 61.93419 | 25.30963 | 24517 ft | 354 kts | 189° |
| 2026-05-07 20:25 | 61.90964 | 25.30847 | 24161 ft | 352 kts | 189° |
| 2026-05-07 20:26 | 61.88527 | 25.30732 | 23808 ft | 350 kts | 189° |
| 2026-05-07 20:26 | 61.86099 | 25.30618 | 23380 ft | 348 kts | 189° |
| 2026-05-07 20:26 | 61.83684 | 25.30505 | 22976 ft | 346 kts | 189° |
| 2026-05-07 20:26 | 61.81290 | 25.30395 | 22622 ft | 342 kts | 189° |
| 2026-05-07 20:27 | 61.78920 | 25.30286 | 22260 ft | 340 kts | 189° |
| 2026-05-07 20:27 | 61.76569 | 25.30177 | 21906 ft | 337 kts | 189° |
| 2026-05-07 20:27 | 61.74236 | 25.30069 | 21572 ft | 333 kts | 189° |
| 2026-05-07 20:27 | 61.71926 | 25.29962 | 21218 ft | 331 kts | 189° |
| 2026-05-07 20:28 | 61.69633 | 25.29854 | 20854 ft | 328 kts | 189° |
| 2026-05-07 20:28 | 61.67363 | 25.29750 | 20549 ft | 325 kts | 189° |
| 2026-05-07 20:28 | 61.65111 | 25.29647 | 20207 ft | 323 kts | 189° |
| 2026-05-07 20:28 | 61.62869 | 25.29544 | 19882 ft | 321 kts | 189° |
| 2026-05-07 20:29 | 61.60642 | 25.29442 | 19550 ft | 319 kts | 189° |
| 2026-05-07 20:29 | 61.58424 | 25.29342 | 19233 ft | 318 kts | 189° |
| 2026-05-07 20:29 | 61.56220 | 25.29242 | 18906 ft | 316 kts | 189° |
| 2026-05-07 20:29 | 61.54024 | 25.29143 | 18587 ft | 315 kts | 189° |
| 2026-05-07 20:30 | 61.51840 | 25.29045 | 18241 ft | 314 kts | 189° |
| 2026-05-07 20:30 | 61.49662 | 25.28946 | 17888 ft | 312 kts | 188° |
| 2026-05-07 20:30 | 61.47504 | 25.28850 | 17568 ft | 309 kts | 188° |
| 2026-05-07 20:30 | 61.45361 | 25.28754 | 17254 ft | 306 kts | 188° |
| 2026-05-07 20:31 | 61.43237 | 25.28658 | 16932 ft | 304 kts | 188° |
| 2026-05-07 20:31 | 61.41126 | 25.28563 | 16623 ft | 302 kts | 188° |
| 2026-05-07 20:31 | 61.39035 | 25.28470 | 16318 ft | 300 kts | 187° |
| 2026-05-07 20:31 | 61.36956 | 25.28376 | 15994 ft | 297 kts | 188° |
| 2026-05-07 20:32 | 61.34896 | 25.28284 | 15691 ft | 295 kts | 188° |
| 2026-05-07 20:32 | 61.32852 | 25.28193 | 15428 ft | 292 kts | 188° |
| 2026-05-07 20:32 | 61.30822 | 25.28102 | 15117 ft | 291 kts | 188° |
| 2026-05-07 20:32 | 61.28801 | 25.28011 | 14820 ft | 290 kts | 188° |
| 2026-05-07 20:33 | 61.26783 | 25.27919 | 14568 ft | 291 kts | 187° |
| 2026-05-07 20:33 | 61.24734 | 25.27822 | 14338 ft | 298 kts | 187° |
| 2026-05-07 20:33 | 61.22638 | 25.27722 | 14099 ft | 304 kts | 187° |
| 2026-05-07 20:33 | 61.20513 | 25.27624 | 13851 ft | 306 kts | 186° |
| 2026-05-07 20:34 | 61.18384 | 25.27531 | 13566 ft | 306 kts | 186° |
| 2026-05-07 20:34 | 61.16251 | 25.27437 | 13287 ft | 305 kts | 186° |
| 2026-05-07 20:34 | 61.14147 | 25.27346 | 13051 ft | 300 kts | 186° |
| 2026-05-07 20:34 | 61.12072 | 25.27257 | 12777 ft | 296 kts | 186° |
| 2026-05-07 20:35 | 61.10024 | 25.27166 | 12504 ft | 293 kts | 186° |
| 2026-05-07 20:35 | 61.08001 | 25.27076 | 12239 ft | 289 kts | 186° |
| 2026-05-07 20:35 | 61.06001 | 25.26986 | 11955 ft | 286 kts | 186° |
| 2026-05-07 20:35 | 61.04024 | 25.26897 | 11702 ft | 283 kts | 186° |
| 2026-05-07 20:36 | 61.02065 | 25.26808 | 11435 ft | 280 kts | 186° |
| 2026-05-07 20:36 | 61.00131 | 25.26722 | 11197 ft | 277 kts | 186° |
| 2026-05-07 20:36 | 60.98209 | 25.26633 | 10709 ft | 283 kts | 185° |
| 2026-05-07 20:36 | 60.96235 | 25.26544 | 10418 ft | 282 kts | 185° |
| 2026-05-07 20:37 | 60.94308 | 25.26495 | 10320 ft | 274 kts | 182° |
| 2026-05-07 20:37 | 60.92416 | 25.26610 | 10135 ft | 271 kts | 181° |
| 2026-05-07 20:37 | 60.90538 | 25.26758 | 9864 ft | 270 kts | 181° |
| 2026-05-07 20:37 | 60.88666 | 25.26896 | 9569 ft | 269 kts | 181° |
| 2026-05-07 20:38 | 60.86799 | 25.27023 | 9276 ft | 268 kts | 181° |
| 2026-05-07 20:38 | 60.84937 | 25.27143 | 9010 ft | 267 kts | 181° |
| 2026-05-07 20:38 | 60.83082 | 25.27260 | 8737 ft | 266 kts | 181° |
| 2026-05-07 20:38 | 60.81234 | 25.27378 | 8469 ft | 265 kts | 181° |
| 2026-05-07 20:39 | 60.79393 | 25.27497 | 8198 ft | 265 kts | 181° |
| 2026-05-07 20:39 | 60.77555 | 25.27616 | 7930 ft | 264 kts | 181° |
| 2026-05-07 20:39 | 60.75723 | 25.27734 | 7674 ft | 263 kts | 181° |
| 2026-05-07 20:39 | 60.73901 | 25.27852 | 7422 ft | 262 kts | 181° |
| 2026-05-07 20:40 | 60.72101 | 25.27969 | 7316 ft | 252 kts | 180° |
| 2026-05-07 20:40 | 60.70395 | 25.28029 | 7230 ft | 238 kts | 188° |
| 2026-05-07 20:40 | 60.68923 | 25.26899 | 7103 ft | 220 kts | 220° |
| 2026-05-07 20:40 | 60.67858 | 25.24827 | 7008 ft | 205 kts | 233° |
| 2026-05-07 20:41 | 60.67001 | 25.22579 | 6831 ft | 198 kts | 236° |
| 2026-05-07 20:41 | 60.66175 | 25.20339 | 6506 ft | 198 kts | 235° |
| 2026-05-07 20:41 | 60.65329 | 25.18100 | 6147 ft | 200 kts | 235° |
| 2026-05-07 20:41 | 60.64472 | 25.15862 | 5822 ft | 200 kts | 235° |
| 2026-05-07 20:42 | 60.63617 | 25.13641 | 5554 ft | 199 kts | 235° |
| 2026-05-07 20:42 | 60.62764 | 25.11434 | 5371 ft | 198 kts | 235° |
| 2026-05-07 20:42 | 60.61912 | 25.09230 | 5188 ft | 199 kts | 235° |
| 2026-05-07 20:42 | 60.61040 | 25.07024 | 5011 ft | 202 kts | 230° |
| 2026-05-07 20:43 | 60.59941 | 25.05207 | 4838 ft | 205 kts | 219° |
| 2026-05-07 20:43 | 60.58795 | 25.03500 | 4638 ft | 203 kts | 220° |
| 2026-05-07 20:43 | 60.57665 | 25.01790 | 4448 ft | 201 kts | 220° |
| 2026-05-07 20:43 | 60.56549 | 25.00092 | 4270 ft | 199 kts | 220° |
| 2026-05-07 20:44 | 60.55435 | 24.98392 | 4112 ft | 211 kts | 220° |
| 2026-05-07 20:44 | 60.54184 | 24.96474 | 3914 ft | 235 kts | 220° |
| 2026-05-07 20:44 | 60.52884 | 24.94493 | 3700 ft | 230 kts | 220° |
| 2026-05-07 20:44 | 60.51632 | 24.92585 | 3508 ft | 221 kts | 220° |
| 2026-05-07 20:45 | 60.50429 | 24.90749 | 3301 ft | 212 kts | 221° |
| 2026-05-07 20:45 | 60.49269 | 24.88977 | 3089 ft | 205 kts | 220° |
| 2026-05-07 20:45 | 60.48149 | 24.87269 | 2924 ft | 197 kts | 221° |
| 2026-05-07 20:45 | 60.47063 | 24.85611 | 2752 ft | 194 kts | 221° |
| 2026-05-07 20:46 | 60.45903 | 24.84343 | 2546 ft | 189 kts | 187° |
| 2026-05-07 20:46 | 60.45042 | 24.84513 | 2374 ft | 191 kts | 158° |
| 2026-05-07 20:46 | 60.43424 | 24.85870 | 2166 ft | 190 kts | 154° |
| 2026-05-07 20:46 | 60.42627 | 24.86630 | 2064 ft | 184 kts | 152° |
| 2026-05-07 20:47 | 60.41178 | 24.88101 | 1986 ft | 171 kts | 152° |
| 2026-05-07 20:47 | 60.40456 | 24.88840 | 1839 ft | 171 kts | 151° |
| 2026-05-07 20:47 | 60.39046 | 24.90285 | 1537 ft | 172 kts | 151° |
| 2026-05-07 20:47 | 60.38328 | 24.91021 | 1377 ft | 170 kts | 152° |
| 2026-05-07 20:48 | 60.37290 | 24.92084 | 1128 ft | 165 kts | 152° |
| 2026-05-07 20:48 | 60.36298 | 24.93093 | 918 ft | 158 kts | 154° |
| 2026-05-07 20:48 | 60.35326 | 24.94091 | 672 ft | 156 kts | 154° |
| 2026-05-07 20:48 | 60.34378 | 24.95066 | 461 ft | 152 kts | 154° |
| 2026-05-07 20:49 | 60.33442 | 24.96014 | 271 ft | 149 kts | 154° |
| 2026-05-07 20:49 | 60.32537 | 24.96953 | 171 ft | 138 kts | 153° |
| 2026-05-07 20:49 | 60.31869 | 24.97636 | 171 ft | 77 kts | 153° |
| 2026-05-07 20:49 | 60.31554 | 24.97957 | 171 ft | 34 kts | 153° |
| 2026-05-07 20:50 | 60.31442 | 24.97943 | 171 ft | 7 kts | 219° |
| 2026-05-07 20:50 | 60.31422 | 24.97893 | 171 ft | 0 kts | 240° |
| 2026-05-07 20:51 | 60.31408 | 24.97841 | 171 ft | 8 kts | 242° |
| 2026-05-07 20:51 | 60.31382 | 24.97735 | 171 ft | 8 kts | 248° |
| 2026-05-07 20:51 | 60.31403 | 24.97636 | 171 ft | 8 kts | 326° |
| 2026-05-07 20:52 | 60.31461 | 24.97574 | 171 ft | 11 kts | 333° |
| 2026-05-07 20:52 | 60.31536 | 24.97489 | 171 ft | 14 kts | 333° |
| 2026-05-07 20:52 | 60.31624 | 24.97399 | 171 ft | 14 kts | 333° |
| 2026-05-07 20:52 | 60.31682 | 24.97340 | 171 ft | 8 kts | 333° |
| 2026-05-07 20:53 | 60.31725 | 24.97295 | 171 ft | 5 kts | 332° |
| 2026-05-07 20:53 | 60.31727 | 24.97229 | 171 ft | 5 kts | 249° |
| 2026-05-07 20:53 | 60.31717 | 24.97184 | 171 ft | 3 kts | 243° |
| 2026-05-07 20:53 | 60.31712 | 24.97164 | 171 ft | 1 kts | 243° |
| 2026-05-07 20:54 | 60.31711 | 24.97161 | 171 ft | 0 kts | 243° |